Nassau, Bahamas

11:35 AM EST on November 15, 2019 (GMT -0500)
Nassau | | Change Station

Elev 46 ft 25.06 °N, 77.30 °W | Updated 14 seconds ago

Clear
Clear
82.8 °F
Feels Like 90 °F
N
11.9
Wind Variable Wind from South
Gusts 15.0 mph

Today
High -- | Low -- °F
--% Chance of Precip.
Yesterday
High -- | Low -- °F
Precip. -- in
Pressure 29.98 in
Visibility -9999.0 miles
Clouds Few 2000 ft
Heat Index 90 °F
Dew Point 75 °F
Humidity 77%
Rainfall 0.00 in
Snow Depth Not available.
6:25 AM 5:21 PM
Waning Gibbous, 90% visible
METAR MYNN 151600Z 23009KT 200V270 FEW020 28/22 A2998
Pressure 29.98 in
Visibility -9999.0 miles
Clouds Few 2000 ft
Heat Index 90 °F
Dew Point 75 °F
Humidity 77%
Rainfall 0.00 in
Snow Depth Not available.
6:25 AM 5:21 PM
Waning Gibbous, 90% visible
METAR MYNN 151600Z 23009KT 200V270 FEW020 28/22 A2998

Get Severe Weather Alerts

Thanks for signing up!

Be on the lookout for a verification email in your inbox.

You'll start receiving the daily forecast at 6 AM.

×

10-Day Weather Forecast

No radar image for this location.
×

Almanac

Astronomy

Nov. 15, 2019 Rise Set
Actual Time
Civil Twilight
Nautical Twilight
Astronomical Twilight
Moon
Length of Visible Light
Length of Day
Tomorrow will be .
, % of the Moon is Illuminated

Today's Extremes

Country Highs Country Lows

Community

WunderPhotos

Category 6

Welcome to Category 6. This is the collective home for Weather Underground's featured writeups by Dr. Jeff Masters (right), Bob Henson (left), Chris Burt, and other regular contributors.

Nearby

Air Quality

  Air Quality AQ Index Pollutant
Not available.

Snow Depth

Station Depth Elevation

Earthquake Activity

City Distance Mag. Time & Date
Minimum magnitude displayed is 2.5.

Coastal Water Temperatures

Place Temperature

Stations

Nearby Weather Stations

Station Location Temp. Windchill Dew Point Humidity Wind Precip. Elev Updated Type